Savoonga, AK

12:42 AM AKDT on October 01, 2016 (GMT -0800)
Savoonga | | Change Station

Elev 52 ft 63.69 °N, 170.49 °W | Updated 6 minutes ago

Partly Cloudy
Partly Cloudy
46 °F
Feels Like 39 °F
N
21
Wind Variable Wind from East

Today
High -- | Low -- °F
--% Chance of Precip.
Yesterday
High -- | Low -- °F
Precip. -- in
Pressure 29.53 in
Visibility -9999.0 miles
Clouds Few 7000 ft
Windchill 39 °F
Dew Point 41 °F
Humidity 81%
Rainfall 0.00 in
Snow Depth Not available.
9:32 AM 8:48 PM
New Moon, 0% visible
METAR PASA 010836Z AUTO 09018KT FEW070 08/05 A2953 RMK AO1
Pressure 29.53 in
Visibility -9999.0 miles
Clouds Few 7000 ft
Windchill 39 °F
Dew Point 41 °F
Humidity 81%
Rainfall 0.00 in
Snow Depth Not available.
9:32 AM 8:48 PM
New Moon, 0% visible
METAR PASA 010836Z AUTO 09018KT FEW070 08/05 A2953 RMK AO1

10-Day Weather Forecast

Almanac

Astronomy

Oct. 01, 2016 Rise Set
Actual Time
Civil Twilight
Nautical Twilight
Astronomical Twilight
Moon
Length of Visible Light
Length of Day
Tomorrow will be .
, % of the Moon is Illuminated

Today's Extremes

State Highs State Lows

Community

WunderPhotos

Upload Photos

1,942,898 photos uploaded!

WunderBlog® & News

Nearby

Air Quality

  Air Quality AQ Index Pollutant
Not available.

Snow Depth

Station Depth Elevation

Earthquake Activity

City Distance Mag. Time & Date
Minimum magnitude displayed is 2.5.

Coastal Water Temperatures

Place Temperature

Stations

Nearby Weather Stations

Station Location Temp. Windchill Dew Point Humidity Wind Precip. Elev Updated Type
                   

Watches & Warnings

There are currently no watches in effect.